createdAt,value
2019-04-11T00:00:58.182Z,92.5963
2019-04-11T00:02:01.221Z,92.7886
2019-04-11T00:03:05.057Z,93.9284
2019-04-11T00:04:08.286Z,94.0154
2019-04-11T00:05:11.172Z,93.3440
2019-04-11T00:06:15.246Z,92.6711
2019-04-11T00:07:18.272Z,93.0053
2019-04-11T00:08:21.730Z,92.8405
2019-04-11T00:09:24.887Z,93.4661
2019-04-11T00:10:29.188Z,93.3333
2019-04-11T00:11:32.196Z,92.7657
2019-04-11T00:12:35.191Z,94.5296
2019-04-11T00:13:39.121Z,94.0108
2019-04-11T00:14:42.214Z,92.7977
2019-04-11T00:15:45.187Z,94.2412
2019-04-11T00:16:48.184Z,94.2275
2019-04-11T00:17:52.311Z,91.2779
2019-04-11T00:18:54.743Z,91.9188
2019-04-11T00:19:56.192Z,91.6915
2019-04-11T00:21:00.231Z,91.4900
2019-04-11T00:22:03.506Z,91.5862
2019-04-11T00:23:08.048Z,93.1914
2019-04-11T00:24:12.458Z,93.1975
2019-04-11T00:25:15.670Z,92.6101
2019-04-11T00:26:18.174Z,92.7977
2019-04-11T00:27:21.261Z,92.6787
2019-04-11T00:28:24.181Z,92.3629
2019-04-11T00:29:28.123Z,93.3989
2019-04-11T00:30:32.290Z,93.9559
2019-04-11T00:31:35.181Z,92.1569
2019-04-11T00:32:38.169Z,92.1218
2019-04-11T00:33:42.398Z,91.7144
2019-04-11T00:34:45.194Z,92.6894
2019-04-11T00:35:48.063Z,90.9850
2019-04-11T00:36:51.213Z,91.6503
2019-04-11T00:37:54.181Z,91.2383
2019-04-11T00:38:57.335Z,92.3262
2019-04-11T00:40:01.808Z,91.2505
2019-04-11T00:41:04.301Z,91.1589
2019-04-11T00:42:07.244Z,91.4382
2019-04-11T00:43:11.372Z,91.0857
2019-04-11T00:44:14.678Z,90.6706
2019-04-11T00:45:19.215Z,90.1427
2019-04-11T00:46:22.470Z,91.4351
2019-04-11T00:47:25.198Z,92.5704
2019-04-11T00:48:28.227Z,90.0923
2019-04-11T00:49:31.185Z,91.1864
2019-04-11T00:50:35.011Z,90.2937
2019-04-11T00:51:38.196Z,90.0282
2019-04-11T00:52:41.304Z,89.5109
2019-04-11T00:53:44.498Z,90.6142
2019-04-11T00:54:47.198Z,90.3090
2019-04-11T00:55:51.248Z,89.5613
2019-04-11T00:56:54.706Z,90.6935
2019-04-11T00:57:57.213Z,90.9072
2019-04-11T00:59:00.282Z,90.1518
2019-04-11T01:00:05.219Z,89.2180
2019-04-11T01:01:09.159Z,90.7515
2019-04-11T01:02:12.176Z,91.2367
2019-04-11T01:03:15.206Z,89.6956
2019-04-11T01:04:18.189Z,90.2525
2019-04-11T01:05:21.370Z,90.7286
2019-04-11T01:06:24.194Z,89.1554
2019-04-11T01:07:27.210Z,89.4850
2019-04-11T01:08:31.279Z,89.5979
2019-04-11T01:09:34.720Z,89.7826
2019-04-11T01:10:37.201Z,89.0211
2019-04-11T01:11:40.451Z,89.8375
2019-04-11T01:12:43.204Z,89.0623
2019-04-11T01:13:50.920Z,89.6300
2019-04-11T01:14:55.225Z,89.2882
2019-04-11T01:15:58.211Z,89.1035
2019-04-11T01:17:01.193Z,88.9403
2019-04-11T01:18:04.204Z,88.0980
2019-04-11T01:19:07.306Z,88.3680
2019-04-11T01:20:11.142Z,88.0705
2019-04-11T01:21:14.187Z,89.9702
2019-04-11T01:22:16.220Z,88.4031
2019-04-11T01:23:20.685Z,88.0461
2019-04-11T01:24:23.872Z,87.3152
2019-04-11T01:25:27.201Z,87.9469
2019-04-11T01:26:30.170Z,88.3391
2019-04-11T01:27:34.167Z,87.3823
2019-04-11T01:28:37.190Z,88.2109
2019-04-11T01:29:40.190Z,87.9042
2019-04-11T01:30:42.189Z,87.4159
2019-04-11T01:31:46.148Z,89.0532
2019-04-11T01:32:49.219Z,89.7719
2019-04-11T01:33:53.889Z,88.5451
2019-04-11T01:35:07.179Z,88.1010
2019-04-11T01:36:11.181Z,87.3228
2019-04-11T01:37:15.530Z,87.4647
2019-04-11T01:38:18.205Z,87.4617
2019-04-11T01:39:23.178Z,88.0888
2019-04-11T01:40:26.177Z,89.2409
2019-04-11T01:41:29.258Z,86.6178
2019-04-11T01:42:33.357Z,88.0842
2019-04-11T01:43:36.187Z,87.2770
2019-04-11T01:44:39.184Z,87.1138
2019-04-11T01:45:49.664Z,86.6331
2019-04-11T01:46:52.197Z,89.3431
2019-04-11T01:47:55.586Z,87.9606
2019-04-11T01:48:58.192Z,89.9229
2019-04-11T01:50:01.168Z,90.2617
2019-04-11T01:51:05.303Z,87.6036
2019-04-11T01:52:08.192Z,86.3066
2019-04-11T01:53:11.200Z,88.5130
2019-04-11T01:54:15.251Z,86.4851
2019-04-11T01:55:18.521Z,90.3853
2019-04-11T01:56:21.174Z,87.9042
2019-04-11T01:57:24.192Z,87.6158
2019-04-11T01:58:27.184Z,88.1285
2019-04-11T01:59:31.196Z,87.6081
2019-04-11T02:00:34.419Z,87.0665
2019-04-11T02:01:37.024Z,87.7729
2019-04-11T02:02:40.188Z,87.2190
2019-04-11T02:03:44.237Z,87.0207
2019-04-11T02:04:48.053Z,85.0446
2019-04-11T02:05:51.588Z,86.0471
2019-04-11T02:06:54.184Z,85.5070
2019-04-11T02:07:58.732Z,86.5827
2019-04-11T02:09:01.931Z,88.0552
2019-04-11T02:10:05.420Z,87.5395
2019-04-11T02:11:09.759Z,88.6091
2019-04-11T02:12:12.185Z,89.3889
2019-04-11T02:13:15.413Z,86.8055
2019-04-11T02:14:19.959Z,86.9306
2019-04-11T02:15:25.205Z,84.2390
2019-04-11T02:16:29.283Z,84.7059
2019-04-11T02:17:32.858Z,84.6876
2019-04-11T02:18:37.299Z,85.5619
2019-04-11T02:19:41.228Z,86.2837
2019-04-11T02:20:45.189Z,87.0680
2019-04-11T02:21:49.644Z,86.8162
2019-04-11T02:22:52.847Z,84.4114
2019-04-11T02:23:56.337Z,84.7746
2019-04-11T02:25:00.505Z,85.3269
2019-04-11T02:26:03.172Z,85.8763
2019-04-11T02:27:06.506Z,85.0568
2019-04-11T02:28:09.164Z,85.8854
2019-04-11T02:29:13.251Z,85.4093
2019-04-11T02:30:20.020Z,86.0243
2019-04-11T02:31:26.161Z,85.5802
2019-04-11T02:32:29.407Z,85.4963
2019-04-11T02:33:32.959Z,84.8295
2019-04-11T02:34:37.085Z,83.9460
2019-04-11T02:35:42.334Z,85.2811
2019-04-11T02:36:48.918Z,86.1616
2019-04-11T02:37:52.219Z,85.4414
2019-04-11T02:38:59.004Z,84.3717
2019-04-11T02:40:03.709Z,85.8183
2019-04-11T02:41:10.574Z,85.9174
2019-04-11T02:42:16.920Z,85.7893
2019-04-11T02:43:20.518Z,83.6286
2019-04-11T02:44:45.501Z,83.6530
2019-04-11T02:45:45.208Z,84.3076
2019-04-11T02:46:48.238Z,83.6759
2019-04-11T02:47:51.062Z,84.0513
2019-04-11T02:48:56.702Z,86.9673
2019-04-11T02:50:01.195Z,84.6861
2019-04-11T02:51:06.927Z,85.4185
2019-04-11T02:52:13.371Z,84.3534
2019-04-11T02:53:18.373Z,84.8569
2019-04-11T02:54:44.646Z,84.7501
2019-04-11T02:55:51.865Z,83.7751
2019-04-11T02:56:55.178Z,83.5325
2019-04-11T02:57:59.757Z,83.0655
2019-04-11T02:59:05.450Z,84.1840
2019-04-11T03:00:11.090Z,85.0355
2019-04-11T03:01:17.893Z,84.7639
2019-04-11T03:02:21.504Z,85.2140
2019-04-11T03:03:25.384Z,84.5182
2019-04-11T03:04:28.946Z,84.0177
2019-04-11T03:05:34.521Z,83.8865
2019-04-11T03:06:37.206Z,85.1987
2019-04-11T03:07:42.336Z,84.0513
2019-04-11T03:08:46.487Z,84.6769
2019-04-11T03:09:53.372Z,84.3992
2019-04-11T03:10:57.638Z,83.0930
2019-04-11T03:12:00.782Z,83.1891
2019-04-11T03:13:04.587Z,84.0955
2019-04-11T03:14:09.635Z,85.6519
2019-04-11T03:15:27.179Z,84.2298
2019-04-11T03:16:32.858Z,83.7156
2019-04-11T03:17:36.779Z,85.6901
2019-04-11T03:18:54.806Z,84.5487
2019-04-11T03:20:04.507Z,83.7125
2019-04-11T03:21:02.775Z,85.2277
2019-04-11T03:22:05.647Z,85.1942
2019-04-11T03:23:10.799Z,83.8132
2019-04-11T03:24:17.671Z,83.9231
2019-04-11T03:25:22.521Z,84.7639
2019-04-11T03:26:25.186Z,84.8508
2019-04-11T03:27:30.256Z,83.8819
2019-04-11T03:28:35.591Z,83.7888
2019-04-11T03:29:40.670Z,83.4958
2019-04-11T03:31:07.172Z,83.0610
2019-04-11T03:32:33.501Z,83.6393
2019-04-11T03:37:53.591Z,84.4389
2019-04-11T03:39:00.315Z,83.9673
2019-04-11T03:40:09.697Z,84.1474
2019-04-11T03:41:12.786Z,86.7414
2019-04-11T03:42:17.223Z,83.8438
2019-04-11T03:43:24.092Z,84.9104
2019-04-11T03:44:25.443Z,86.1616
2019-04-11T03:45:49.698Z,84.9531
2019-04-11T03:46:49.255Z,84.4755
2019-04-11T03:48:00.912Z,83.5233
2019-04-11T03:49:01.268Z,83.6789
2019-04-11T03:50:06.055Z,84.9943
2019-04-11T03:51:20.514Z,83.1662
2019-04-11T03:52:25.664Z,85.1301
2019-04-11T03:53:29.908Z,83.1220
2019-04-11T03:54:36.267Z,84.0635
2019-04-11T03:55:39.189Z,83.8529
2019-04-11T03:56:43.354Z,84.8478
2019-04-11T03:57:46.966Z,85.2995
2019-04-11T03:58:50.396Z,84.9516
2019-04-11T03:59:54.545Z,86.2425
2019-04-11T04:01:03.244Z,82.7832
2019-04-11T04:02:07.639Z,82.8656
2019-04-11T04:03:12.099Z,84.2985
2019-04-11T04:04:19.320Z,83.0381
2019-04-11T04:05:26.182Z,85.4093
2019-04-11T04:06:28.832Z,85.9739
2019-04-11T04:07:31.983Z,85.1255
2019-04-11T04:08:36.362Z,84.8478
2019-04-11T04:09:43.801Z,84.7791
2019-04-11T04:10:47.718Z,84.1459
2019-04-11T04:11:51.173Z,85.1225
2019-04-11T04:12:55.684Z,85.0629
2019-04-11T04:13:59.891Z,85.3239
2019-04-11T04:15:06.493Z,86.1662
2019-04-11T04:16:21.652Z,85.8183
2019-04-11T04:17:21.375Z,85.8396
2019-04-11T04:18:25.175Z,88.4947
2019-04-11T04:19:30.409Z,87.5105
2019-04-11T04:20:35.287Z,89.8787
2019-04-11T04:21:38.846Z,86.9291
2019-04-11T04:22:44.057Z,88.2841
2019-04-11T04:23:49.621Z,87.5212
2019-04-11T04:24:53.999Z,87.2221
2019-04-11T04:26:01.221Z,86.7613
2019-04-11T04:27:07.167Z,86.0731
2019-04-11T04:28:13.661Z,88.9036
2019-04-11T04:29:17.943Z,90.1259
2019-04-11T04:30:21.908Z,86.6087
2019-04-11T04:31:26.548Z,87.9561
2019-04-11T04:32:30.410Z,89.3462
2019-04-11T04:33:36.334Z,88.5313
2019-04-11T04:34:42.093Z,87.5120
2019-04-11T04:35:45.190Z,87.4830
2019-04-11T04:36:49.710Z,88.0934
2019-04-11T04:37:52.202Z,88.0873
2019-04-11T04:38:56.930Z,88.4993
2019-04-11T04:40:21.152Z,87.3243
2019-04-11T04:41:22.472Z,86.9108
2019-04-11T04:42:26.405Z,87.0619
2019-04-11T04:43:27.536Z,86.4027
2019-04-11T04:44:33.408Z,86.1708
2019-04-11T04:45:55.146Z,85.4932
2019-04-11T04:46:58.085Z,86.4302
2019-04-11T04:47:56.588Z,86.3661
2019-04-11T04:49:00.186Z,85.9693
2019-04-11T04:50:06.177Z,86.4088
2019-04-11T04:51:11.414Z,86.0548
2019-04-11T04:52:16.457Z,89.7551
2019-04-11T04:53:20.421Z,87.4464
2019-04-11T04:54:25.184Z,87.4098
2019-04-11T04:55:30.292Z,85.6794
2019-04-11T04:56:34.942Z,85.8396
2019-04-11T04:57:40.495Z,86.0639
2019-04-11T04:58:44.455Z,86.6926
2019-04-11T04:59:48.795Z,85.8549
2019-04-11T05:00:54.265Z,87.4098
2019-04-11T05:01:59.396Z,88.3223
2019-04-11T05:03:02.521Z,86.7369
2019-04-11T05:04:06.752Z,87.0359
2019-04-11T05:05:09.571Z,87.0680
2019-04-11T05:06:14.324Z,86.3249
2019-04-11T05:07:19.266Z,85.7816
2019-04-11T05:08:22.862Z,85.8183
2019-04-11T05:09:26.203Z,85.6031
2019-04-11T05:10:30.666Z,87.0802
2019-04-11T05:11:33.955Z,86.1067
2019-04-11T05:12:38.626Z,88.3589
2019-04-11T05:13:45.307Z,87.6936
2019-04-11T05:14:51.799Z,86.3767
2019-04-11T05:16:06.857Z,86.9261
2019-04-11T05:17:04.332Z,85.8961
2019-04-11T05:18:06.324Z,86.7735
2019-04-11T05:19:09.180Z,86.1021
2019-04-11T05:20:14.057Z,89.0089
2019-04-11T05:21:17.192Z,86.5827
2019-04-11T05:22:20.196Z,86.1067
2019-04-11T05:23:23.534Z,85.4185
2019-04-11T05:24:26.432Z,87.2145
2019-04-11T05:25:30.825Z,85.8167
2019-04-11T05:26:33.388Z,84.9897
2019-04-11T05:27:36.193Z,85.0813
2019-04-11T05:28:39.397Z,83.8041
2019-04-11T05:29:42.194Z,84.3244
2019-04-11T05:30:44.984Z,84.7639
2019-04-11T05:31:49.223Z,84.6723
2019-04-11T05:32:52.199Z,84.2878
2019-04-11T05:33:56.072Z,84.4938
2019-04-11T05:34:59.205Z,84.3885
2019-04-11T05:36:02.187Z,85.2644
2019-04-11T05:37:05.206Z,84.3122
2019-04-11T05:38:08.415Z,85.6291
2019-04-11T05:39:11.206Z,84.2969
2019-04-11T05:40:14.849Z,84.0543
2019-04-11T05:41:17.355Z,86.4820
2019-04-11T05:42:22.754Z,84.6830
2019-04-11T05:43:31.884Z,84.3992
2019-04-11T05:44:38.181Z,84.9470
2019-04-11T05:45:43.189Z,85.2674
2019-04-11T05:46:52.408Z,84.6601
2019-04-11T05:47:56.355Z,84.7181
2019-04-11T05:49:00.740Z,84.9668
2019-04-11T05:50:13.542Z,85.0858
2019-04-11T05:51:21.338Z,86.0334
2019-04-11T05:52:27.387Z,87.1534
2019-04-11T05:53:35.323Z,85.3040
2019-04-11T05:54:41.812Z,87.4342
2019-04-11T05:55:47.560Z,85.1438
2019-04-11T05:56:54.735Z,83.8758
2019-04-11T05:57:58.639Z,84.9119
2019-04-11T05:59:01.917Z,85.0797
2019-04-11T06:00:05.541Z,85.2140
2019-04-11T06:01:10.040Z,83.8483
2019-04-11T06:02:15.103Z,84.5991
2019-04-11T06:03:18.197Z,84.4816
2019-04-11T06:04:24.087Z,84.5991
2019-04-11T06:05:32.459Z,85.6062
2019-04-11T06:06:40.178Z,83.6896
2019-04-11T06:07:46.994Z,84.1596
2019-04-11T06:08:50.168Z,84.0497
2019-04-11T06:09:53.190Z,84.7868
2019-04-11T06:10:56.687Z,83.7201
2019-04-11T06:11:59.209Z,85.6535
2019-04-11T06:13:02.501Z,83.9261
2019-04-11T06:14:05.889Z,84.3748
2019-04-11T06:15:11.548Z,84.5045
2019-04-11T06:16:14.618Z,84.0604
2019-04-11T06:17:18.364Z,85.0202
2019-04-11T06:18:27.859Z,85.3101
2019-04-11T06:19:30.348Z,84.0589
2019-04-11T06:20:33.449Z,84.2557
2019-04-11T06:21:36.193Z,84.3015
2019-04-11T06:22:40.254Z,83.2685
2019-04-11T06:23:43.468Z,83.1495
2019-04-11T06:24:46.207Z,83.3783
2019-04-11T06:25:49.283Z,83.5019
2019-04-11T06:26:52.190Z,83.9765
2019-04-11T06:27:55.812Z,83.4501
2019-04-11T06:28:59.101Z,84.3748
2019-04-11T06:30:09.663Z,83.1525
2019-04-11T06:31:33.862Z,84.2603
2019-04-11T06:32:37.366Z,83.7308
2019-04-11T06:33:41.222Z,83.3402
2019-04-11T06:34:44.191Z,83.4180
2019-04-11T06:35:48.267Z,83.0335
2019-04-11T06:36:51.214Z,84.1199
2019-04-11T06:37:54.313Z,84.7242
2019-04-11T06:38:57.198Z,82.9282
2019-04-11T06:40:00.853Z,83.6973
2019-04-11T06:41:06.179Z,83.2532
2019-04-11T06:42:09.203Z,83.0030
2019-04-11T06:43:12.208Z,82.9877
2019-04-11T06:44:16.365Z,84.0360
2019-04-11T06:45:19.709Z,83.9811
2019-04-11T06:46:22.168Z,83.0808
2019-04-11T06:47:25.182Z,83.6561
2019-04-11T06:48:28.215Z,83.6515
2019-04-11T06:49:31.184Z,84.5075
2019-04-11T06:50:35.380Z,82.7009
2019-04-11T06:51:38.491Z,83.7262
2019-04-11T06:52:41.284Z,82.6123
2019-04-11T06:53:44.211Z,83.6942
2019-04-11T06:54:47.518Z,82.7268
2019-04-11T06:55:50.954Z,83.5706
2019-04-11T06:56:54.181Z,82.3713
2019-04-11T06:57:58.414Z,82.8870
2019-04-11T06:59:01.728Z,82.4582
2019-04-11T07:00:05.201Z,82.1607
2019-04-11T07:01:08.269Z,82.0508
2019-04-11T07:02:16.522Z,82.4842
2019-04-11T07:03:23.141Z,82.2690
2019-04-11T07:04:27.385Z,83.4913
2019-04-11T07:05:30.903Z,82.3987
2019-04-11T07:06:34.262Z,81.9852
2019-04-11T07:07:37.749Z,82.7726
2019-04-11T07:08:40.613Z,82.2461
2019-04-11T07:09:43.209Z,82.5727
2019-04-11T07:10:46.726Z,83.1128
2019-04-11T07:11:49.198Z,82.4994
2019-04-11T07:12:54.230Z,83.2685
2019-04-11T07:13:59.182Z,82.1790
2019-04-11T07:15:02.572Z,82.8687
2019-04-11T07:16:05.962Z,82.3255
2019-04-11T07:17:10.395Z,82.3758
2019-04-11T07:18:14.202Z,83.1937
2019-04-11T07:19:17.689Z,82.6032
2019-04-11T07:20:20.756Z,82.1653
2019-04-11T07:21:23.328Z,82.4430
2019-04-11T07:22:26.242Z,82.0050
2019-04-11T07:23:29.198Z,82.9282
2019-04-11T07:24:32.357Z,82.5910
2019-04-11T07:25:35.294Z,82.2889
2019-04-11T07:26:38.234Z,81.6525
2019-04-11T07:27:41.181Z,81.6831
2019-04-11T07:28:44.182Z,82.3056
2019-04-11T07:29:47.204Z,82.0859
2019-04-11T07:30:50.285Z,82.6001
2019-04-11T07:31:53.206Z,81.9455
2019-04-11T07:32:56.251Z,82.3697
2019-04-11T07:34:00.528Z,82.8519
2019-04-11T07:35:04.651Z,82.6490
2019-04-11T07:36:08.354Z,83.5737
2019-04-11T07:37:12.588Z,82.6871
2019-04-11T07:38:16.290Z,82.7680
2019-04-11T07:39:18.183Z,81.8067
2019-04-11T07:40:20.241Z,82.7695
2019-04-11T07:41:23.948Z,83.1174
2019-04-11T07:42:27.285Z,82.9465
2019-04-11T07:43:31.292Z,83.1113
2019-04-11T07:44:34.204Z,82.5666
2019-04-11T07:45:38.519Z,83.1434
2019-04-11T07:46:43.227Z,83.2441
2019-04-11T07:47:46.194Z,83.8041
2019-04-11T07:48:50.210Z,83.0671
2019-04-11T07:49:55.170Z,82.8931
2019-04-11T07:50:59.743Z,83.0854
2019-04-11T07:52:02.530Z,83.2639
2019-04-11T07:53:05.189Z,83.3036
2019-04-11T07:54:09.269Z,82.6093
2019-04-11T07:55:13.138Z,83.3875
2019-04-11T07:56:16.483Z,82.6535
2019-04-11T07:57:19.387Z,83.4195
2019-04-11T07:58:22.183Z,82.3438
2019-04-11T07:59:25.229Z,83.2364
2019-04-11T08:00:38.600Z,83.3143
2019-04-11T08:01:36.297Z,82.6047
2019-04-11T08:02:39.881Z,81.5335
2019-04-11T08:03:43.191Z,82.8000
2019-04-11T08:04:47.300Z,82.1775
2019-04-11T08:05:50.285Z,81.8677
2019-04-11T08:06:53.999Z,81.7121
2019-04-11T08:07:57.410Z,83.0442
2019-04-11T08:09:01.303Z,82.0218
2019-04-11T08:10:04.195Z,82.1912
2019-04-11T08:11:07.197Z,81.5778
2019-04-11T08:12:10.176Z,82.2919
2019-04-11T08:13:14.122Z,83.1022
2019-04-11T08:14:18.325Z,81.8494
2019-04-11T08:15:21.668Z,81.8845
2019-04-11T08:16:24.180Z,82.5177
2019-04-11T08:17:35.524Z,82.6047
2019-04-11T08:18:35.189Z,80.9461
2019-04-11T08:19:38.630Z,82.3743
2019-04-11T08:20:41.563Z,81.0986
2019-04-11T08:21:44.425Z,81.7426
2019-04-11T08:22:47.561Z,81.2543
2019-04-11T08:23:50.179Z,80.8972
2019-04-11T08:24:53.254Z,80.5585
2019-04-11T08:25:56.180Z,80.9369
2019-04-11T08:26:59.186Z,80.0259
2019-04-11T08:28:04.362Z,80.7218
2019-04-11T08:29:12.312Z,80.9689
2019-04-11T08:30:17.243Z,80.5768
2019-04-11T08:31:21.551Z,80.2243
2019-04-11T08:32:25.446Z,81.2528
2019-04-11T08:33:28.796Z,79.7238
2019-04-11T08:34:31.463Z,79.3088
2019-04-11T08:35:34.586Z,79.4034
2019-04-11T08:36:37.993Z,78.8220
2019-04-11T08:37:41.179Z,78.4344
2019-04-11T08:38:44.696Z,78.5473
2019-04-11T08:39:49.078Z,78.2635
2019-04-11T08:40:53.262Z,77.9492
2019-04-11T08:41:56.926Z,79.4553
2019-04-11T08:43:00.191Z,78.9410
2019-04-11T08:44:03.652Z,77.6272
2019-04-11T08:45:06.197Z,78.2925
2019-04-11T08:46:09.197Z,78.5473
2019-04-11T08:47:12.190Z,77.2488
2019-04-11T08:48:15.023Z,78.3841
2019-04-11T08:49:18.427Z,79.9451
2019-04-11T08:50:20.671Z,77.5830
2019-04-11T08:51:23.316Z,76.7803
2019-04-11T08:52:26.215Z,78.8495
2019-04-11T08:53:29.201Z,78.2269
2019-04-11T08:54:33.291Z,77.9477
2019-04-11T08:55:45.561Z,77.8439
2019-04-11T08:56:45.379Z,77.9126
2019-04-11T08:57:48.206Z,77.5097
2019-04-11T08:58:51.202Z,77.4762
2019-04-11T08:59:54.166Z,76.3134
2019-04-11T09:01:00.151Z,77.6181
2019-04-11T09:02:04.523Z,77.2122
2019-04-11T09:03:07.288Z,76.4843
2019-04-11T09:04:11.911Z,79.4644
2019-04-11T09:05:18.771Z,78.0270
2019-04-11T09:06:23.211Z,77.1618
2019-04-11T09:07:27.506Z,78.7121
2019-04-11T09:08:32.253Z,77.6684
2019-04-11T09:09:36.277Z,77.2305
2019-04-11T09:10:40.058Z,77.5875
2019-04-11T09:11:43.243Z,79.1943
2019-04-11T09:12:46.820Z,77.8714
2019-04-11T09:13:49.465Z,78.6404
2019-04-11T09:14:52.666Z,79.6872
2019-04-11T09:15:55.201Z,79.0234
2019-04-11T09:16:58.357Z,77.0871
2019-04-11T09:18:04.707Z,77.8942
2019-04-11T09:19:10.403Z,78.3825
2019-04-11T09:20:13.597Z,78.4207
2019-04-11T09:21:16.210Z,77.7569
2019-04-11T09:22:19.220Z,77.9675
2019-04-11T09:23:22.173Z,77.4273
2019-04-11T09:24:26.265Z,75.1751
2019-04-11T09:25:30.478Z,77.5402
2019-04-11T09:26:34.205Z,75.9884
2019-04-11T09:27:38.408Z,76.7712
2019-04-11T09:28:41.842Z,75.2331
2019-04-11T09:29:46.231Z,76.9131
2019-04-11T09:30:49.462Z,73.8811
2019-04-11T09:31:52.202Z,73.5073
2019-04-11T09:32:56.208Z,76.6125
2019-04-11T09:33:59.543Z,75.9289
2019-04-11T09:35:02.253Z,73.1731
2019-04-11T09:36:05.895Z,73.6126
2019-04-11T09:37:09.433Z,73.5439
2019-04-11T09:38:13.928Z,74.8989
2019-04-11T09:39:17.180Z,75.6375
2019-04-11T09:40:20.416Z,75.9442
2019-04-11T09:41:24.797Z,75.1431
2019-04-11T09:42:28.295Z,75.0271
2019-04-11T09:43:31.780Z,75.1797
2019-04-11T09:44:34.982Z,75.9747
2019-04-11T09:45:38.203Z,75.6283
2019-04-11T09:46:41.192Z,76.2081
2019-04-11T09:47:45.616Z,75.3201
2019-04-11T09:48:48.417Z,76.7773
2019-04-11T09:49:51.586Z,76.1944
2019-04-11T09:50:54.274Z,76.3867
2019-04-11T09:51:58.225Z,76.8444
2019-04-11T09:53:01.566Z,76.7849
2019-04-11T09:54:04.239Z,76.9650
2019-04-11T09:55:08.564Z,76.7407
2019-04-11T09:56:11.296Z,75.4543
2019-04-11T09:57:14.278Z,77.2213
2019-04-11T09:58:17.481Z,74.8669
2019-04-11T09:59:20.965Z,74.0093
2019-04-11T10:00:24.269Z,73.9727
2019-04-11T10:01:27.278Z,76.7040
2019-04-11T10:02:31.079Z,75.8846
2019-04-11T10:03:34.593Z,75.4910
2019-04-11T10:04:37.232Z,74.9447
2019-04-11T10:05:57.218Z,74.9523
2019-04-11T10:07:01.275Z,75.1141
2019-04-11T10:08:08.655Z,74.4762
2019-04-11T10:09:13.523Z,74.8074
2019-04-11T10:10:16.910Z,75.5810
2019-04-11T10:11:20.258Z,74.6288
2019-04-11T10:12:24.205Z,75.8618
2019-04-11T10:13:27.334Z,76.8185
2019-04-11T10:14:31.504Z,77.1435
2019-04-11T10:15:35.519Z,75.2102
2019-04-11T10:16:42.281Z,74.3023
2019-04-11T10:17:46.384Z,73.6996
2019-04-11T10:18:56.299Z,73.1991
2019-04-11T10:20:00.251Z,75.7916
2019-04-11T10:21:05.238Z,72.5780
2019-04-11T10:22:08.931Z,74.6227
2019-04-11T10:23:13.777Z,72.7138
2019-04-11T10:24:20.551Z,73.1212
2019-04-11T10:25:23.394Z,77.1527
2019-04-11T10:26:29.727Z,75.2331
2019-04-11T10:27:32.984Z,75.5352
2019-04-11T10:28:37.504Z,72.6467
2019-04-11T10:29:40.364Z,73.6797
2019-04-11T10:30:44.113Z,74.5235
2019-04-11T10:31:48.521Z,75.6771
2019-04-11T10:32:53.548Z,75.8328
2019-04-11T10:34:03.279Z,76.1593
2019-04-11T10:35:08.203Z,74.1741
2019-04-11T10:36:13.273Z,75.1019
2019-04-11T10:37:17.887Z,71.9326
2019-04-11T10:38:22.439Z,73.1548
2019-04-11T10:39:25.346Z,76.2463
2019-04-11T10:40:28.211Z,76.6339
2019-04-11T10:41:32.641Z,76.0525
2019-04-11T10:42:35.273Z,76.6293
2019-04-11T10:43:57.167Z,77.0153
2019-04-11T10:45:00.367Z,74.4900
2019-04-11T10:46:03.239Z,75.8022
2019-04-11T10:47:08.342Z,77.1923
2019-04-11T10:48:12.247Z,77.2717
2019-04-11T10:49:15.196Z,77.3709
2019-04-11T10:50:21.744Z,75.9518
2019-04-11T10:51:26.948Z,75.7778
2019-04-11T10:52:30.827Z,76.4416
2019-04-11T10:53:35.406Z,74.5861
2019-04-11T10:54:42.936Z,74.2855
2019-04-11T10:55:47.676Z,73.8857
2019-04-11T10:56:50.186Z,76.0113
2019-04-11T10:57:54.087Z,77.3343
2019-04-11T10:58:57.431Z,75.8938
2019-04-11T11:00:00.242Z,77.0275
2019-04-11T11:01:03.968Z,76.9512
2019-04-11T11:02:07.172Z,77.0657
2019-04-11T11:03:11.615Z,77.6883
2019-04-11T11:04:18.033Z,76.7849
2019-04-11T11:05:22.160Z,75.1690
2019-04-11T11:06:27.473Z,77.5036
2019-04-11T11:07:30.790Z,77.9034
2019-04-11T11:08:37.591Z,78.9181
2019-04-11T11:09:40.303Z,78.0453
2019-04-11T11:10:45.884Z,75.6283
2019-04-11T11:11:50.547Z,75.4528
2019-04-11T11:14:05.211Z,76.2051
2019-04-11T11:15:09.292Z,76.8124
2019-04-11T11:16:12.305Z,73.7987
2019-04-11T11:17:28.878Z,75.3262
2019-04-11T11:18:42.643Z,75.3628
2019-04-11T11:19:49.784Z,76.1944
2019-04-11T11:20:50.150Z,75.1827
2019-04-11T11:21:51.262Z,74.6746
2019-04-11T11:22:55.957Z,74.3862
2019-04-11T11:23:59.219Z,74.8623
2019-04-11T11:25:02.403Z,75.1690
2019-04-11T11:26:05.211Z,75.3796
2019-04-11T11:27:09.630Z,73.8872
2019-04-11T11:28:16.423Z,74.8425
2019-04-11T11:29:20.470Z,75.1553
2019-04-11T11:30:27.270Z,74.3816
2019-04-11T11:31:30.298Z,73.8232
2019-04-11T11:32:34.199Z,74.5830
2019-04-11T11:33:38.638Z,77.0916
2019-04-11T11:34:41.232Z,74.9889
2019-04-11T11:35:44.322Z,76.1227
2019-04-11T11:36:48.431Z,76.9421
2019-04-11T11:37:53.412Z,76.6567
2019-04-11T11:38:55.189Z,74.9493
2019-04-11T11:40:02.614Z,73.7499
2019-04-11T11:41:08.540Z,75.3811
2019-04-11T11:42:12.290Z,75.7748
2019-04-11T11:43:15.243Z,76.2264
2019-04-11T11:44:19.480Z,76.8139
2019-04-11T11:45:23.587Z,76.8261
2019-04-11T11:46:26.786Z,76.7666
2019-04-11T11:47:35.674Z,75.4986
2019-04-11T11:48:40.193Z,75.2712
2019-04-11T11:49:51.938Z,76.3699
2019-04-11T11:50:51.494Z,76.1303
2019-04-11T11:51:58.059Z,75.5001
2019-04-11T11:53:08.229Z,73.7179
2019-04-11T11:54:11.489Z,73.1579
2019-04-11T11:55:14.187Z,72.5734
2019-04-11T11:56:17.873Z,74.6838
2019-04-11T11:57:20.454Z,72.6650
2019-04-11T11:58:23.677Z,74.0246
2019-04-11T11:59:27.381Z,76.1318
2019-04-11T12:00:31.752Z,74.7646
2019-04-11T12:01:34.220Z,73.7850
2019-04-11T12:02:37.350Z,74.3816
2019-04-11T12:03:42.339Z,71.6625
2019-04-11T12:04:46.661Z,72.7382
2019-04-11T12:05:52.161Z,72.7230
2019-04-11T12:07:03.615Z,72.2881
2019-04-11T12:08:09.619Z,74.5266
2019-04-11T12:09:14.206Z,73.5698
2019-04-11T12:10:17.446Z,69.9123
2019-04-11T12:11:20.174Z,72.2255
2019-04-11T12:12:23.941Z,71.3726
2019-04-11T12:13:28.311Z,72.2026
2019-04-11T12:14:31.211Z,72.1416
2019-04-11T12:15:35.072Z,73.1533
2019-04-11T12:16:39.703Z,71.9951
2019-04-11T12:17:42.802Z,72.3110
2019-04-11T12:18:49.817Z,72.2515
2019-04-11T12:19:57.442Z,72.1553
2019-04-11T12:21:01.205Z,71.2551
2019-04-11T12:22:04.397Z,71.2001
2019-04-11T12:23:07.210Z,71.1498
2019-04-11T12:24:11.325Z,71.5938
2019-04-11T12:25:14.589Z,71.6762
2019-04-11T12:26:18.299Z,73.1258
2019-04-11T12:27:21.292Z,73.2876
2019-04-11T12:28:25.553Z,72.1340
2019-04-11T12:29:30.210Z,72.2927
2019-04-11T12:30:35.360Z,74.3542
2019-04-11T12:31:38.367Z,72.8664
2019-04-11T12:32:41.225Z,71.1406
2019-04-11T12:33:44.189Z,72.0638
2019-04-11T12:34:47.234Z,72.1431
2019-04-11T12:35:50.777Z,73.9452
2019-04-11T12:36:54.823Z,73.6721
2019-04-11T12:37:59.959Z,73.2876
2019-04-11T12:39:03.244Z,73.6385
2019-04-11T12:40:09.650Z,73.0480
2019-04-11T12:41:21.215Z,74.0780
2019-04-11T12:42:24.185Z,73.8003
2019-04-11T12:43:27.186Z,72.4910
2019-04-11T12:44:30.434Z,72.3812
2019-04-11T12:45:32.200Z,70.6142
2019-04-11T12:46:35.206Z,71.8456
2019-04-11T12:47:39.181Z,73.0999
2019-04-11T12:48:42.184Z,74.1527
2019-04-11T12:49:52.744Z,72.3674
2019-04-11T12:50:53.238Z,73.1258
2019-04-11T12:51:55.497Z,72.5231
2019-04-11T12:52:58.196Z,72.0699
2019-04-11T12:54:01.925Z,72.4773
2019-04-11T12:55:05.225Z,72.3629
2019-04-11T12:56:08.224Z,71.9692
2019-04-11T12:57:12.162Z,72.4865
2019-04-11T12:58:15.201Z,72.3674
2019-04-11T12:59:18.240Z,71.5007
2019-04-11T13:00:22.087Z,72.2744
2019-04-11T13:01:25.212Z,72.3156
2019-04-11T13:02:28.208Z,72.8328
2019-04-11T13:03:32.266Z,72.8344
2019-04-11T13:04:36.282Z,72.3659